sensor_id;sensor_type;location;lat;lon;timestamp;P1;durP1;ratioP1;P2;durP2;ratioP2
57800;SDS011;43627;42.728;23.256;2022-11-12T00:00:52;47.63;;;24.27;;
57800;SDS011;43627;42.728;23.256;2022-11-12T00:03:19;51.67;;;25.02;;
57800;SDS011;43627;42.728;23.256;2022-11-12T00:05:46;52.78;;;25.35;;
57800;SDS011;43627;42.728;23.256;2022-11-12T00:08:14;43.50;;;23.17;;
57800;SDS011;43627;42.728;23.256;2022-11-12T00:10:42;45.15;;;24.40;;
57800;SDS011;43627;42.728;23.256;2022-11-12T00:13:09;45.33;;;24.17;;
57800;SDS011;43627;42.728;23.256;2022-11-12T00:15:36;45.83;;;23.67;;
57800;SDS011;43627;42.728;23.256;2022-11-12T00:18:03;47.63;;;23.92;;
57800;SDS011;43627;42.728;23.256;2022-11-12T00:20:30;50.08;;;24.00;;
57800;SDS011;43627;42.728;23.256;2022-11-12T00:22:57;46.75;;;23.55;;
57800;SDS011;43627;42.728;23.256;2022-11-12T00:25:24;49.50;;;25.48;;
57800;SDS011;43627;42.728;23.256;2022-11-12T00:27:51;45.65;;;23.10;;
57800;SDS011;43627;42.728;23.256;2022-11-12T00:30:18;45.78;;;23.92;;
57800;SDS011;43627;42.728;23.256;2022-11-12T00:32:45;49.10;;;24.75;;
57800;SDS011;43627;42.728;23.256;2022-11-12T00:35:11;49.35;;;25.55;;
57800;SDS011;43627;42.728;23.256;2022-11-12T00:37:39;49.00;;;25.40;;
57800;SDS011;43627;42.728;23.256;2022-11-12T00:40:06;53.05;;;25.13;;
57800;SDS011;43627;42.728;23.256;2022-11-12T00:42:33;42.58;;;22.70;;
57800;SDS011;43627;42.728;23.256;2022-11-12T00:45:01;49.42;;;22.70;;
57800;SDS011;43627;42.728;23.256;2022-11-12T00:47:27;43.13;;;22.48;;
57800;SDS011;43627;42.728;23.256;2022-11-12T00:49:54;48.85;;;22.17;;
57800;SDS011;43627;42.728;23.256;2022-11-12T00:52:21;43.97;;;22.40;;
57800;SDS011;43627;42.728;23.256;2022-11-12T00:54:47;41.00;;;22.10;;
57800;SDS011;43627;42.728;23.256;2022-11-12T00:57:14;50.50;;;22.90;;
57800;SDS011;43627;42.728;23.256;2022-11-12T00:59:41;45.70;;;23.17;;
57800;SDS011;43627;42.728;23.256;2022-11-12T01:02:07;43.13;;;22.00;;
57800;SDS011;43627;42.728;23.256;2022-11-12T01:04:34;46.22;;;23.60;;
57800;SDS011;43627;42.728;23.256;2022-11-12T01:07:01;42.45;;;20.73;;
57800;SDS011;43627;42.728;23.256;2022-11-12T01:09:28;44.13;;;22.50;;
57800;SDS011;43627;42.728;23.256;2022-11-12T01:11:55;47.08;;;23.38;;
57800;SDS011;43627;42.728;23.256;2022-11-12T01:14:21;47.33;;;24.33;;
57800;SDS011;43627;42.728;23.256;2022-11-12T01:16:48;46.92;;;22.83;;
57800;SDS011;43627;42.728;23.256;2022-11-12T01:19:15;45.78;;;23.88;;
57800;SDS011;43627;42.728;23.256;2022-11-12T01:21:42;43.25;;;24.17;;
57800;SDS011;43627;42.728;23.256;2022-11-12T01:24:09;39.83;;;20.30;;
57800;SDS011;43627;42.728;23.256;2022-11-12T01:26:37;43.47;;;23.85;;
57800;SDS011;43627;42.728;23.256;2022-11-12T01:29:04;48.70;;;22.95;;
57800;SDS011;43627;42.728;23.256;2022-11-12T01:31:32;39.92;;;21.63;;
57800;SDS011;43627;42.728;23.256;2022-11-12T01:34:05;41.22;;;22.63;;
57800;SDS011;43627;42.728;23.256;2022-11-12T01:36:34;54.13;;;24.63;;
57800;SDS011;43627;42.728;23.256;2022-11-12T01:39:04;41.97;;;21.00;;
57800;SDS011;43627;42.728;23.256;2022-11-12T01:41:32;36.97;;;20.00;;
57800;SDS011;43627;42.728;23.256;2022-11-12T01:44:05;33.88;;;19.85;;
57800;SDS011;43627;42.728;23.256;2022-11-12T01:46:32;41.75;;;21.42;;
57800;SDS011;43627;42.728;23.256;2022-11-12T01:49:03;39.15;;;20.65;;
57800;SDS011;43627;42.728;23.256;2022-11-12T01:51:35;32.75;;;18.27;;
57800;SDS011;43627;42.728;23.256;2022-11-12T01:54:06;38.85;;;20.55;;
57800;SDS011;43627;42.728;23.256;2022-11-12T01:56:36;44.40;;;23.80;;
57800;SDS011;43627;42.728;23.256;2022-11-12T01:59:10;45.33;;;23.42;;
57800;SDS011;43627;42.728;23.256;2022-11-12T02:01:41;38.90;;;20.77;;
57800;SDS011;43627;42.728;23.256;2022-11-12T02:04:09;36.78;;;19.90;;
57800;SDS011;43627;42.728;23.256;2022-11-12T02:06:36;41.45;;;19.77;;
57800;SDS011;43627;42.728;23.256;2022-11-12T02:09:06;37.88;;;21.23;;
57800;SDS011;43627;42.728;23.256;2022-11-12T02:11:32;40.50;;;20.98;;
57800;SDS011;43627;42.728;23.256;2022-11-12T02:13:59;40.65;;;20.35;;
57800;SDS011;43627;42.728;23.256;2022-11-12T02:16:27;33.25;;;19.13;;
57800;SDS011;43627;42.728;23.256;2022-11-12T02:18:54;30.52;;;16.73;;
57800;SDS011;43627;42.728;23.256;2022-11-12T02:21:21;35.40;;;18.20;;
57800;SDS011;43627;42.728;23.256;2022-11-12T02:23:56;29.88;;;16.25;;
57800;SDS011;43627;42.728;23.256;2022-11-12T02:26:44;30.98;;;15.20;;
57800;SDS011;43627;42.728;23.256;2022-11-12T02:29:12;32.20;;;16.67;;
57800;SDS011;43627;42.728;23.256;2022-11-12T02:31:39;32.53;;;15.48;;
57800;SDS011;43627;42.728;23.256;2022-11-12T02:34:06;26.90;;;13.80;;
57800;SDS011;43627;42.728;23.256;2022-11-12T02:36:32;29.40;;;13.80;;
57800;SDS011;43627;42.728;23.256;2022-11-12T02:38:59;42.55;;;21.60;;
57800;SDS011;43627;42.728;23.256;2022-11-12T02:41:25;32.85;;;16.70;;
57800;SDS011;43627;42.728;23.256;2022-11-12T02:43:52;28.77;;;14.27;;
57800;SDS011;43627;42.728;23.256;2022-11-12T02:46:19;27.30;;;14.88;;
57800;SDS011;43627;42.728;23.256;2022-11-12T02:48:45;25.25;;;13.38;;
57800;SDS011;43627;42.728;23.256;2022-11-12T02:51:12;25.70;;;14.50;;
57800;SDS011;43627;42.728;23.256;2022-11-12T02:53:39;29.20;;;16.38;;
57800;SDS011;43627;42.728;23.256;2022-11-12T02:56:06;32.17;;;16.15;;
57800;SDS011;43627;42.728;23.256;2022-11-12T02:58:32;26.42;;;15.13;;
57800;SDS011;43627;42.728;23.256;2022-11-12T03:00:59;26.90;;;14.23;;
57800;SDS011;43627;42.728;23.256;2022-11-12T03:03:26;25.27;;;14.82;;
57800;SDS011;43627;42.728;23.256;2022-11-12T03:05:57;23.88;;;14.10;;
57800;SDS011;43627;42.728;23.256;2022-11-12T03:08:26;23.55;;;11.77;;
57800;SDS011;43627;42.728;23.256;2022-11-12T03:10:53;20.48;;;10.75;;
57800;SDS011;43627;42.728;23.256;2022-11-12T03:13:20;22.48;;;11.85;;
57800;SDS011;43627;42.728;23.256;2022-11-12T03:15:46;21.00;;;11.45;;
57800;SDS011;43627;42.728;23.256;2022-11-12T03:18:13;19.27;;;9.88;;
57800;SDS011;43627;42.728;23.256;2022-11-12T03:20:40;23.15;;;11.82;;
57800;SDS011;43627;42.728;23.256;2022-11-12T03:23:08;19.95;;;10.65;;
57800;SDS011;43627;42.728;23.256;2022-11-12T03:25:36;21.58;;;11.82;;
57800;SDS011;43627;42.728;23.256;2022-11-12T03:28:04;20.98;;;11.90;;
57800;SDS011;43627;42.728;23.256;2022-11-12T03:30:34;20.40;;;11.38;;
57800;SDS011;43627;42.728;23.256;2022-11-12T03:33:02;20.73;;;11.82;;
57800;SDS011;43627;42.728;23.256;2022-11-12T03:35:30;20.05;;;11.48;;
57800;SDS011;43627;42.728;23.256;2022-11-12T03:37:59;24.95;;;14.32;;
57800;SDS011;43627;42.728;23.256;2022-11-12T03:40:26;18.05;;;10.45;;
57800;SDS011;43627;42.728;23.256;2022-11-12T03:42:54;11.70;;;7.47;;
57800;SDS011;43627;42.728;23.256;2022-11-12T03:45:21;15.00;;;7.88;;
57800;SDS011;43627;42.728;23.256;2022-11-12T03:47:54;15.07;;;7.63;;
57800;SDS011;43627;42.728;23.256;2022-11-12T03:52:52;16.73;;;7.85;;
57800;SDS011;43627;42.728;23.256;2022-11-12T03:55:20;10.90;;;6.50;;
57800;SDS011;43627;42.728;23.256;2022-11-12T03:57:49;9.52;;;5.90;;
57800;SDS011;43627;42.728;23.256;2022-11-12T04:00:17;12.20;;;6.43;;
57800;SDS011;43627;42.728;23.256;2022-11-12T04:02:45;10.40;;;6.07;;
57800;SDS011;43627;42.728;23.256;2022-11-12T04:05:12;12.63;;;5.93;;
57800;SDS011;43627;42.728;23.256;2022-11-12T04:07:58;9.75;;;5.88;;
57800;SDS011;43627;42.728;23.256;2022-11-12T04:10:45;8.77;;;5.22;;
57800;SDS011;43627;42.728;23.256;2022-11-12T04:13:12;9.65;;;5.60;;
57800;SDS011;43627;42.728;23.256;2022-11-12T04:15:58;9.77;;;5.25;;
57800;SDS011;43627;42.728;23.256;2022-11-12T04:18:55;9.48;;;5.88;;
57800;SDS011;43627;42.728;23.256;2022-11-12T04:21:43;10.35;;;6.93;;
57800;SDS011;43627;42.728;23.256;2022-11-12T04:24:40;16.40;;;8.52;;
57800;SDS011;43627;42.728;23.256;2022-11-12T04:27:27;13.82;;;5.97;;
57800;SDS011;43627;42.728;23.256;2022-11-12T04:29:56;14.25;;;6.20;;
57800;SDS011;43627;42.728;23.256;2022-11-12T04:32:51;10.02;;;5.50;;
57800;SDS011;43627;42.728;23.256;2022-11-12T04:35:23;8.52;;;5.60;;
57800;SDS011;43627;42.728;23.256;2022-11-12T04:37:52;8.82;;;5.97;;
57800;SDS011;43627;42.728;23.256;2022-11-12T04:40:23;13.15;;;5.60;;
57800;SDS011;43627;42.728;23.256;2022-11-12T04:43:11;9.40;;;6.07;;
57800;SDS011;43627;42.728;23.256;2022-11-12T04:45:58;9.85;;;5.93;;
57800;SDS011;43627;42.728;23.256;2022-11-12T04:48:26;8.65;;;5.38;;
57800;SDS011;43627;42.728;23.256;2022-11-12T04:51:00;9.93;;;5.93;;
57800;SDS011;43627;42.728;23.256;2022-11-12T04:53:29;12.13;;;6.38;;
57800;SDS011;43627;42.728;23.256;2022-11-12T04:55:57;12.00;;;6.22;;
57800;SDS011;43627;42.728;23.256;2022-11-12T04:58:24;27.85;;;6.45;;
57800;SDS011;43627;42.728;23.256;2022-11-12T05:00:51;19.02;;;9.50;;
57800;SDS011;43627;42.728;23.256;2022-11-12T05:03:18;23.17;;;9.13;;
57800;SDS011;43627;42.728;23.256;2022-11-12T05:05:45;26.05;;;8.30;;
57800;SDS011;43627;42.728;23.256;2022-11-12T05:08:12;21.58;;;8.45;;
57800;SDS011;43627;42.728;23.256;2022-11-12T05:10:39;20.55;;;7.53;;
57800;SDS011;43627;42.728;23.256;2022-11-12T05:13:05;15.55;;;7.07;;
57800;SDS011;43627;42.728;23.256;2022-11-12T05:15:33;16.90;;;8.07;;
57800;SDS011;43627;42.728;23.256;2022-11-12T05:17:59;16.20;;;8.02;;
57800;SDS011;43627;42.728;23.256;2022-11-12T05:20:26;18.15;;;8.80;;
57800;SDS011;43627;42.728;23.256;2022-11-12T05:22:53;13.85;;;7.65;;
57800;SDS011;43627;42.728;23.256;2022-11-12T05:25:33;15.43;;;7.85;;
57800;SDS011;43627;42.728;23.256;2022-11-12T05:28:00;17.92;;;8.00;;
57800;SDS011;43627;42.728;23.256;2022-11-12T05:30:27;11.70;;;6.50;;
57800;SDS011;43627;42.728;23.256;2022-11-12T05:32:54;17.10;;;7.93;;
57800;SDS011;43627;42.728;23.256;2022-11-12T05:35:21;16.90;;;8.05;;
57800;SDS011;43627;42.728;23.256;2022-11-12T05:37:47;17.52;;;8.50;;
57800;SDS011;43627;42.728;23.256;2022-11-12T05:40:14;14.23;;;8.55;;
57800;SDS011;43627;42.728;23.256;2022-11-12T05:42:41;11.80;;;8.13;;
57800;SDS011;43627;42.728;23.256;2022-11-12T05:45:08;12.27;;;7.30;;
57800;SDS011;43627;42.728;23.256;2022-11-12T05:47:34;13.98;;;7.18;;
57800;SDS011;43627;42.728;23.256;2022-11-12T05:50:01;15.43;;;6.10;;
57800;SDS011;43627;42.728;23.256;2022-11-12T05:52:28;11.98;;;6.07;;
57800;SDS011;43627;42.728;23.256;2022-11-12T05:54:55;15.77;;;7.03;;
57800;SDS011;43627;42.728;23.256;2022-11-12T05:57:22;16.48;;;5.97;;
57800;SDS011;43627;42.728;23.256;2022-11-12T05:59:48;15.68;;;6.20;;
57800;SDS011;43627;42.728;23.256;2022-11-12T06:02:15;18.77;;;7.97;;
57800;SDS011;43627;42.728;23.256;2022-11-12T06:04:42;14.65;;;6.60;;
57800;SDS011;43627;42.728;23.256;2022-11-12T06:07:08;16.67;;;6.25;;
57800;SDS011;43627;42.728;23.256;2022-11-12T06:09:35;20.13;;;8.23;;
57800;SDS011;43627;42.728;23.256;2022-11-12T06:12:02;28.45;;;8.05;;
57800;SDS011;43627;42.728;23.256;2022-11-12T06:14:32;19.83;;;8.15;;
57800;SDS011;43627;42.728;23.256;2022-11-12T06:16:59;20.27;;;8.27;;
57800;SDS011;43627;42.728;23.256;2022-11-12T06:19:26;15.00;;;7.90;;
57800;SDS011;43627;42.728;23.256;2022-11-12T06:21:53;19.63;;;9.60;;
57800;SDS011;43627;42.728;23.256;2022-11-12T06:24:20;20.05;;;9.32;;
57800;SDS011;43627;42.728;23.256;2022-11-12T06:26:46;19.95;;;7.85;;
57800;SDS011;43627;42.728;23.256;2022-11-12T06:29:13;17.98;;;6.53;;
57800;SDS011;43627;42.728;23.256;2022-11-12T06:31:40;12.50;;;6.32;;
57800;SDS011;43627;42.728;23.256;2022-11-12T06:34:06;13.02;;;6.80;;
57800;SDS011;43627;42.728;23.256;2022-11-12T06:36:33;11.10;;;6.90;;
57800;SDS011;43627;42.728;23.256;2022-11-12T06:39:00;9.95;;;5.82;;
57800;SDS011;43627;42.728;23.256;2022-11-12T06:41:27;8.88;;;5.78;;
57800;SDS011;43627;42.728;23.256;2022-11-12T06:43:53;11.15;;;6.32;;
57800;SDS011;43627;42.728;23.256;2022-11-12T06:46:20;9.05;;;5.22;;
57800;SDS011;43627;42.728;23.256;2022-11-12T06:48:47;9.02;;;5.50;;
57800;SDS011;43627;42.728;23.256;2022-11-12T06:51:18;9.20;;;5.60;;
57800;SDS011;43627;42.728;23.256;2022-11-12T06:56:12;6.85;;;4.20;;
57800;SDS011;43627;42.728;23.256;2022-11-12T06:58:39;9.75;;;4.72;;
57800;SDS011;43627;42.728;23.256;2022-11-12T07:01:11;13.07;;;4.43;;
57800;SDS011;43627;42.728;23.256;2022-11-12T07:03:40;9.40;;;4.35;;
57800;SDS011;43627;42.728;23.256;2022-11-12T07:06:13;7.35;;;4.10;;
57800;SDS011;43627;42.728;23.256;2022-11-12T07:08:44;10.88;;;4.72;;
57800;SDS011;43627;42.728;23.256;2022-11-12T07:11:16;8.20;;;4.65;;
57800;SDS011;43627;42.728;23.256;2022-11-12T07:13:43;10.40;;;4.50;;
57800;SDS011;43627;42.728;23.256;2022-11-12T07:16:11;9.18;;;4.63;;
57800;SDS011;43627;42.728;23.256;2022-11-12T07:18:39;7.80;;;4.72;;
57800;SDS011;43627;42.728;23.256;2022-11-12T07:21:06;7.80;;;5.10;;
57800;SDS011;43627;42.728;23.256;2022-11-12T07:23:35;7.20;;;4.40;;
57800;SDS011;43627;42.728;23.256;2022-11-12T07:26:04;9.65;;;5.78;;
57800;SDS011;43627;42.728;23.256;2022-11-12T07:28:32;9.68;;;5.03;;
57800;SDS011;43627;42.728;23.256;2022-11-12T07:31:01;7.32;;;4.88;;
57800;SDS011;43627;42.728;23.256;2022-11-12T07:33:32;8.18;;;4.90;;
57800;SDS011;43627;42.728;23.256;2022-11-12T07:36:00;10.70;;;5.30;;
57800;SDS011;43627;42.728;23.256;2022-11-12T07:38:27;6.72;;;4.38;;
57800;SDS011;43627;42.728;23.256;2022-11-12T07:40:59;7.70;;;4.25;;
57800;SDS011;43627;42.728;23.256;2022-11-12T07:43:31;8.82;;;4.35;;
57800;SDS011;43627;42.728;23.256;2022-11-12T07:46:02;9.15;;;4.80;;
57800;SDS011;43627;42.728;23.256;2022-11-12T07:48:36;8.45;;;4.15;;
57800;SDS011;43627;42.728;23.256;2022-11-12T07:51:04;9.18;;;5.07;;
57800;SDS011;43627;42.728;23.256;2022-11-12T07:53:32;8.63;;;4.63;;
57800;SDS011;43627;42.728;23.256;2022-11-12T07:56:00;8.20;;;4.93;;
57800;SDS011;43627;42.728;23.256;2022-11-12T07:58:28;7.18;;;4.43;;
57800;SDS011;43627;42.728;23.256;2022-11-12T08:00:57;8.73;;;4.40;;
57800;SDS011;43627;42.728;23.256;2022-11-12T08:03:24;10.13;;;4.32;;
57800;SDS011;43627;42.728;23.256;2022-11-12T08:05:51;13.75;;;4.93;;
57800;SDS011;43627;42.728;23.256;2022-11-12T08:08:17;8.48;;;4.03;;
57800;SDS011;43627;42.728;23.256;2022-11-12T08:10:44;8.25;;;4.45;;
57800;SDS011;43627;42.728;23.256;2022-11-12T08:13:11;10.32;;;4.38;;
57800;SDS011;43627;42.728;23.256;2022-11-12T08:15:37;7.50;;;4.03;;
57800;SDS011;43627;42.728;23.256;2022-11-12T08:18:04;5.68;;;3.25;;
57800;SDS011;43627;42.728;23.256;2022-11-12T08:20:31;6.60;;;3.75;;
57800;SDS011;43627;42.728;23.256;2022-11-12T08:22:58;7.20;;;3.88;;
57800;SDS011;43627;42.728;23.256;2022-11-12T08:25:25;8.35;;;4.00;;
57800;SDS011;43627;42.728;23.256;2022-11-12T08:27:56;8.15;;;3.38;;
57800;SDS011;43627;42.728;23.256;2022-11-12T08:30:24;6.25;;;3.70;;
57800;SDS011;43627;42.728;23.256;2022-11-12T08:32:58;11.05;;;4.53;;
57800;SDS011;43627;42.728;23.256;2022-11-12T08:35:27;6.05;;;4.10;;
57800;SDS011;43627;42.728;23.256;2022-11-12T08:37:58;5.57;;;3.28;;
57800;SDS011;43627;42.728;23.256;2022-11-12T08:40:29;10.93;;;3.50;;
57800;SDS011;43627;42.728;23.256;2022-11-12T08:43:01;6.10;;;3.65;;
57800;SDS011;43627;42.728;23.256;2022-11-12T08:45:36;6.72;;;3.72;;
57800;SDS011;43627;42.728;23.256;2022-11-12T08:48:08;10.73;;;4.00;;
57800;SDS011;43627;42.728;23.256;2022-11-12T08:50:37;10.20;;;4.03;;
57800;SDS011;43627;42.728;23.256;2022-11-12T08:53:05;5.53;;;3.55;;
57800;SDS011;43627;42.728;23.256;2022-11-12T08:55:36;5.25;;;3.05;;
57800;SDS011;43627;42.728;23.256;2022-11-12T08:58:03;4.10;;;2.25;;
57800;SDS011;43627;42.728;23.256;2022-11-12T09:00:32;4.38;;;2.55;;
57800;SDS011;43627;42.728;23.256;2022-11-12T09:03:00;4.20;;;2.30;;
57800;SDS011;43627;42.728;23.256;2022-11-12T09:05:28;7.82;;;3.60;;
57800;SDS011;43627;42.728;23.256;2022-11-12T09:07:56;7.15;;;2.45;;
57800;SDS011;43627;42.728;23.256;2022-11-12T09:10:30;5.10;;;3.08;;
57800;SDS011;43627;42.728;23.256;2022-11-12T09:12:58;5.45;;;2.80;;
57800;SDS011;43627;42.728;23.256;2022-11-12T09:15:25;8.07;;;3.22;;
57800;SDS011;43627;42.728;23.256;2022-11-12T09:18:10;4.88;;;3.17;;
57800;SDS011;43627;42.728;23.256;2022-11-12T09:20:39;8.02;;;3.25;;
57800;SDS011;43627;42.728;23.256;2022-11-12T09:23:07;4.72;;;2.72;;
57800;SDS011;43627;42.728;23.256;2022-11-12T09:25:36;5.15;;;3.08;;
57800;SDS011;43627;42.728;23.256;2022-11-12T09:28:09;6.07;;;2.80;;
57800;SDS011;43627;42.728;23.256;2022-11-12T09:30:40;6.55;;;2.97;;
57800;SDS011;43627;42.728;23.256;2022-11-12T09:33:08;6.78;;;3.13;;
57800;SDS011;43627;42.728;23.256;2022-11-12T09:35:35;8.10;;;4.05;;
57800;SDS011;43627;42.728;23.256;2022-11-12T09:38:02;8.70;;;3.47;;
57800;SDS011;43627;42.728;23.256;2022-11-12T09:45:52;10.50;;;2.63;;
57800;SDS011;43627;42.728;23.256;2022-11-12T09:48:46;5.90;;;3.55;;
57800;SDS011;43627;42.728;23.256;2022-11-12T09:51:26;6.28;;;3.33;;
57800;SDS011;43627;42.728;23.256;2022-11-12T09:54:10;6.18;;;3.45;;
57800;SDS011;43627;42.728;23.256;2022-11-12T09:56:45;5.63;;;2.83;;
57800;SDS011;43627;42.728;23.256;2022-11-12T09:59:13;7.78;;;2.97;;
57800;SDS011;43627;42.728;23.256;2022-11-12T10:08:16;6.35;;;2.80;;
57800;SDS011;43627;42.728;23.256;2022-11-12T10:19:35;4.72;;;2.70;;
57800;SDS011;43627;42.728;23.256;2022-11-12T10:24:54;4.50;;;3.20;;
57800;SDS011;43627;42.728;23.256;2022-11-12T10:27:34;5.22;;;3.60;;
57800;SDS011;43627;42.728;23.256;2022-11-12T10:30:08;5.45;;;2.50;;
57800;SDS011;43627;42.728;23.256;2022-11-12T10:32:45;6.13;;;2.38;;
57800;SDS011;43627;42.728;23.256;2022-11-12T10:35:18;14.05;;;5.10;;
57800;SDS011;43627;42.728;23.256;2022-11-12T10:37:53;7.20;;;3.25;;
57800;SDS011;43627;42.728;23.256;2022-11-12T10:40:26;7.03;;;3.45;;
57800;SDS011;43627;42.728;23.256;2022-11-12T10:42:57;5.68;;;3.25;;
57800;SDS011;43627;42.728;23.256;2022-11-12T10:45:25;5.40;;;3.60;;
57800;SDS011;43627;42.728;23.256;2022-11-12T10:47:53;4.45;;;3.00;;
57800;SDS011;43627;42.728;23.256;2022-11-12T10:50:20;5.20;;;2.58;;
57800;SDS011;43627;42.728;23.256;2022-11-12T10:52:55;4.68;;;2.83;;
57800;SDS011;43627;42.728;23.256;2022-11-12T10:55:25;5.57;;;3.42;;
57800;SDS011;43627;42.728;23.256;2022-11-12T10:58:13;6.10;;;3.25;;
57800;SDS011;43627;42.728;23.256;2022-11-12T11:00:56;6.32;;;3.88;;
57800;SDS011;43627;42.728;23.256;2022-11-12T11:03:32;5.33;;;2.23;;
57800;SDS011;43627;42.728;23.256;2022-11-12T11:06:05;3.97;;;2.80;;
57800;SDS011;43627;42.728;23.256;2022-11-12T11:08:44;4.25;;;2.70;;
57800;SDS011;43627;42.728;23.256;2022-11-12T11:11:26;6.65;;;3.67;;
57800;SDS011;43627;42.728;23.256;2022-11-12T11:13:55;4.60;;;2.90;;
57800;SDS011;43627;42.728;23.256;2022-11-12T11:16:56;6.88;;;2.85;;
57800;SDS011;43627;42.728;23.256;2022-11-12T11:19:33;5.75;;;2.92;;
57800;SDS011;43627;42.728;23.256;2022-11-12T11:22:10;9.10;;;3.92;;
57800;SDS011;43627;42.728;23.256;2022-11-12T11:30:58;4.30;;;2.40;;
57800;SDS011;43627;42.728;23.256;2022-11-12T11:33:39;2.88;;;2.28;;
57800;SDS011;43627;42.728;23.256;2022-11-12T11:36:18;6.13;;;2.60;;
57800;SDS011;43627;42.728;23.256;2022-11-12T11:38:59;6.65;;;3.17;;
57800;SDS011;43627;42.728;23.256;2022-11-12T11:47:06;4.82;;;3.47;;
57800;SDS011;43627;42.728;23.256;2022-11-12T11:54:58;4.13;;;2.38;;
57800;SDS011;43627;42.728;23.256;2022-11-12T12:00:54;6.20;;;3.05;;
57800;SDS011;43627;42.728;23.256;2022-11-12T12:06:34;6.72;;;4.00;;
57800;SDS011;43627;42.728;23.256;2022-11-12T12:12:00;3.33;;;2.20;;
57800;SDS011;43627;42.728;23.256;2022-11-12T12:14:56;3.50;;;2.58;;
57800;SDS011;43627;42.728;23.256;2022-11-12T12:17:40;6.13;;;2.97;;
57800;SDS011;43627;42.728;23.256;2022-11-12T12:23:01;4.18;;;2.75;;
57800;SDS011;43627;42.728;23.256;2022-11-12T12:25:33;5.13;;;2.60;;
57800;SDS011;43627;42.728;23.256;2022-11-12T12:28:09;3.83;;;2.60;;
57800;SDS011;43627;42.728;23.256;2022-11-12T12:30:44;4.45;;;2.08;;
57800;SDS011;43627;42.728;23.256;2022-11-12T12:33:32;4.90;;;2.53;;
57800;SDS011;43627;42.728;23.256;2022-11-12T12:39:16;3.17;;;2.20;;
57800;SDS011;43627;42.728;23.256;2022-11-12T12:41:50;4.97;;;2.28;;
57800;SDS011;43627;42.728;23.256;2022-11-12T12:44:21;3.33;;;2.17;;
57800;SDS011;43627;42.728;23.256;2022-11-12T12:47:10;4.13;;;2.42;;
57800;SDS011;43627;42.728;23.256;2022-11-12T12:49:39;5.18;;;2.70;;
57800;SDS011;43627;42.728;23.256;2022-11-12T12:52:10;3.55;;;2.38;;
57800;SDS011;43627;42.728;23.256;2022-11-12T13:02:57;4.63;;;2.35;;
57800;SDS011;43627;42.728;23.256;2022-11-12T13:08:08;4.32;;;2.38;;
57800;SDS011;43627;42.728;23.256;2022-11-12T13:15:45;3.75;;;2.42;;
57800;SDS011;43627;42.728;23.256;2022-11-12T13:21:07;8.27;;;2.70;;
57800;SDS011;43627;42.728;23.256;2022-11-12T13:23:46;4.53;;;2.38;;
57800;SDS011;43627;42.728;23.256;2022-11-12T13:31:47;4.32;;;2.30;;
57800;SDS011;43627;42.728;23.256;2022-11-12T13:36:58;3.25;;;2.35;;
57800;SDS011;43627;42.728;23.256;2022-11-12T13:39:33;5.10;;;3.13;;
57800;SDS011;43627;42.728;23.256;2022-11-12T13:42:07;4.57;;;2.90;;
57800;SDS011;43627;42.728;23.256;2022-11-12T13:44:59;5.13;;;2.35;;
57800;SDS011;43627;42.728;23.256;2022-11-12T13:47:26;4.60;;;2.90;;
57800;SDS011;43627;42.728;23.256;2022-11-12T13:49:54;5.15;;;3.30;;
57800;SDS011;43627;42.728;23.256;2022-11-12T13:52:26;5.88;;;3.72;;
57800;SDS011;43627;42.728;23.256;2022-11-12T13:55:04;6.28;;;3.42;;
57800;SDS011;43627;42.728;23.256;2022-11-12T13:57:38;5.20;;;3.22;;
57800;SDS011;43627;42.728;23.256;2022-11-12T14:02:44;6.43;;;4.25;;
57800;SDS011;43627;42.728;23.256;2022-11-12T14:05:16;12.95;;;8.48;;
57800;SDS011;43627;42.728;23.256;2022-11-12T14:14:01;11.35;;;6.85;;
57800;SDS011;43627;42.728;23.256;2022-11-12T14:22:36;8.23;;;4.80;;
57800;SDS011;43627;42.728;23.256;2022-11-12T14:25:09;10.77;;;5.97;;
57800;SDS011;43627;42.728;23.256;2022-11-12T14:27:41;10.95;;;5.18;;
57800;SDS011;43627;42.728;23.256;2022-11-12T14:32:39;14.48;;;7.32;;
57800;SDS011;43627;42.728;23.256;2022-11-12T14:35:18;12.88;;;7.15;;
57800;SDS011;43627;42.728;23.256;2022-11-12T14:38:09;13.93;;;7.72;;
57800;SDS011;43627;42.728;23.256;2022-11-12T14:40:59;13.00;;;7.47;;
57800;SDS011;43627;42.728;23.256;2022-11-12T14:43:30;20.77;;;8.73;;
57800;SDS011;43627;42.728;23.256;2022-11-12T14:46:01;23.27;;;12.73;;
57800;SDS011;43627;42.728;23.256;2022-11-12T14:48:32;21.58;;;11.93;;
57800;SDS011;43627;42.728;23.256;2022-11-12T14:51:13;19.33;;;9.60;;
57800;SDS011;43627;42.728;23.256;2022-11-12T14:53:42;16.15;;;8.80;;
57800;SDS011;43627;42.728;23.256;2022-11-12T14:56:25;16.50;;;8.60;;
57800;SDS011;43627;42.728;23.256;2022-11-12T14:59:01;19.08;;;11.05;;
57800;SDS011;43627;42.728;23.256;2022-11-12T15:01:34;22.85;;;11.35;;
57800;SDS011;43627;42.728;23.256;2022-11-12T15:06:52;20.20;;;11.18;;
57800;SDS011;43627;42.728;23.256;2022-11-12T15:09:36;21.30;;;11.50;;
57800;SDS011;43627;42.728;23.256;2022-11-12T15:12:04;28.67;;;12.35;;
57800;SDS011;43627;42.728;23.256;2022-11-12T15:14:34;23.85;;;11.23;;
57800;SDS011;43627;42.728;23.256;2022-11-12T15:17:01;20.27;;;10.40;;
57800;SDS011;43627;42.728;23.256;2022-11-12T15:19:30;18.67;;;8.77;;
57800;SDS011;43627;42.728;23.256;2022-11-12T15:21:58;17.08;;;9.50;;
57800;SDS011;43627;42.728;23.256;2022-11-12T15:24:35;14.38;;;7.22;;
57800;SDS011;43627;42.728;23.256;2022-11-12T15:35:41;16.90;;;8.68;;
57800;SDS011;43627;42.728;23.256;2022-11-12T15:38:11;13.95;;;8.50;;
57800;SDS011;43627;42.728;23.256;2022-11-12T15:40:44;19.77;;;9.40;;
57800;SDS011;43627;42.728;23.256;2022-11-12T15:43:15;20.17;;;10.95;;
57800;SDS011;43627;42.728;23.256;2022-11-12T15:45:51;24.83;;;11.95;;
57800;SDS011;43627;42.728;23.256;2022-11-12T15:48:19;15.75;;;9.80;;
57800;SDS011;43627;42.728;23.256;2022-11-12T15:50:47;18.05;;;10.48;;
57800;SDS011;43627;42.728;23.256;2022-11-12T15:53:14;22.92;;;11.40;;
57800;SDS011;43627;42.728;23.256;2022-11-12T15:55:41;24.08;;;12.50;;
57800;SDS011;43627;42.728;23.256;2022-11-12T15:58:19;26.10;;;13.85;;
57800;SDS011;43627;42.728;23.256;2022-11-12T16:00:55;24.98;;;13.15;;
57800;SDS011;43627;42.728;23.256;2022-11-12T16:03:23;20.77;;;12.45;;
57800;SDS011;43627;42.728;23.256;2022-11-12T16:05:50;21.63;;;11.80;;
57800;SDS011;43627;42.728;23.256;2022-11-12T16:08:17;17.48;;;9.90;;
57800;SDS011;43627;42.728;23.256;2022-11-12T16:10:44;22.25;;;9.20;;
57800;SDS011;43627;42.728;23.256;2022-11-12T16:13:18;18.17;;;10.60;;
57800;SDS011;43627;42.728;23.256;2022-11-12T16:15:51;16.58;;;8.45;;
57800;SDS011;43627;42.728;23.256;2022-11-12T16:18:18;17.65;;;10.32;;
57800;SDS011;43627;42.728;23.256;2022-11-12T16:20:46;27.83;;;12.40;;
57800;SDS011;43627;42.728;23.256;2022-11-12T16:23:13;20.27;;;11.23;;
57800;SDS011;43627;42.728;23.256;2022-11-12T16:25:41;17.50;;;10.30;;
57800;SDS011;43627;42.728;23.256;2022-11-12T16:28:13;24.58;;;12.40;;
57800;SDS011;43627;42.728;23.256;2022-11-12T16:30:41;25.60;;;14.65;;
57800;SDS011;43627;42.728;23.256;2022-11-12T16:33:10;23.48;;;13.77;;
57800;SDS011;43627;42.728;23.256;2022-11-12T16:35:38;23.92;;;12.23;;
57800;SDS011;43627;42.728;23.256;2022-11-12T16:38:13;18.00;;;9.48;;
57800;SDS011;43627;42.728;23.256;2022-11-12T16:40:41;22.17;;;10.30;;